createdAt,value
2023-02-27T00:00:49.805Z,957.92
2023-02-27T00:01:50.030Z,957.94
2023-02-27T00:02:49.952Z,957.92
2023-02-27T00:03:49.839Z,957.91
2023-02-27T00:04:49.828Z,957.85
2023-02-27T00:05:49.807Z,957.88
2023-02-27T00:06:49.823Z,957.92
2023-02-27T00:07:49.829Z,957.88
2023-02-27T00:08:49.855Z,957.93
2023-02-27T00:10:49.865Z,957.94
2023-02-27T00:11:49.847Z,957.9
2023-02-27T00:12:49.960Z,957.92
2023-02-27T00:13:49.934Z,957.95
2023-02-27T00:15:49.860Z,957.9
2023-02-27T00:16:49.841Z,957.88
2023-02-27T00:17:49.852Z,957.89
2023-02-27T00:18:49.852Z,957.88
2023-02-27T00:19:49.855Z,957.9
2023-02-27T00:20:49.887Z,957.86
2023-02-27T00:21:49.859Z,957.9
2023-02-27T00:23:49.854Z,957.85
2023-02-27T00:24:49.979Z,957.83
2023-02-27T00:25:49.874Z,957.8
2023-02-27T00:26:49.894Z,957.83
2023-02-27T00:27:49.878Z,957.79
2023-02-27T00:28:49.864Z,957.75
2023-02-27T00:29:49.928Z,957.76
2023-02-27T00:30:49.911Z,957.77
2023-02-27T00:31:49.967Z,957.76
2023-02-27T00:32:49.876Z,957.82
2023-02-27T00:33:49.893Z,957.84
2023-02-27T00:34:49.884Z,957.77
2023-02-27T00:35:49.889Z,957.8
2023-02-27T00:36:49.893Z,957.78
2023-02-27T00:37:49.908Z,957.76
2023-02-27T00:39:50.104Z,957.74
2023-02-27T00:40:49.919Z,957.82
2023-02-27T00:41:49.913Z,957.79
2023-02-27T00:43:49.962Z,957.82
2023-02-27T00:44:49.894Z,957.79
2023-02-27T00:45:50.019Z,957.82
2023-02-27T00:46:49.978Z,957.8
2023-02-27T00:47:49.936Z,957.83
2023-02-27T00:48:49.909Z,957.82
2023-02-27T00:50:49.916Z,957.83
2023-02-27T00:51:49.917Z,957.84
2023-02-27T00:52:49.941Z,957.87
2023-02-27T00:53:49.917Z,957.84
2023-02-27T00:54:49.940Z,957.87
2023-02-27T00:55:49.992Z,957.93
2023-02-27T00:56:49.946Z,957.9
2023-02-27T00:59:50.028Z,957.89
2023-02-27T01:00:49.984Z,957.88
2023-02-27T01:01:49.958Z,957.89
2023-02-27T01:03:50.061Z,957.87
2023-02-27T01:04:50.937Z,957.86
2023-02-27T01:05:49.959Z,957.87
2023-02-27T01:06:49.958Z,957.9
2023-02-27T01:07:49.972Z,957.94
2023-02-27T01:08:49.966Z,957.92
2023-02-27T01:09:49.979Z,957.91
2023-02-27T01:11:49.980Z,957.95
2023-02-27T01:12:50.048Z,957.94
2023-02-27T01:13:50.003Z,957.92
2023-02-27T01:14:50.000Z,957.93
2023-02-27T01:15:49.972Z,957.99
2023-02-27T01:16:49.988Z,957.89
2023-02-27T01:17:49.980Z,957.9
2023-02-27T01:18:49.982Z,957.85
2023-02-27T01:19:50.025Z,957.89
2023-02-27T01:20:49.998Z,957.93
2023-02-27T01:21:50.003Z,957.92
2023-02-27T01:23:49.989Z,957.88
2023-02-27T01:24:50.010Z,957.91
2023-02-27T01:25:50.004Z,957.88
2023-02-27T01:26:50.013Z,957.83
2023-02-27T01:27:50.012Z,957.87
2023-02-27T01:28:50.128Z,957.76
2023-02-27T01:29:50.019Z,957.82
2023-02-27T01:30:50.053Z,957.79
2023-02-27T01:32:50.219Z,957.77
2023-02-27T01:33:50.029Z,957.81
2023-02-27T01:34:50.147Z,957.78
2023-02-27T01:36:50.031Z,957.75
2023-02-27T01:37:50.176Z,957.74
2023-02-27T01:38:50.050Z,957.75
2023-02-27T01:39:50.061Z,957.72
2023-02-27T01:40:50.170Z,957.71
2023-02-27T01:43:50.155Z,957.75
2023-02-27T01:44:50.111Z,957.67
2023-02-27T01:45:50.153Z,957.74
2023-02-27T01:46:50.051Z,957.72
2023-02-27T01:47:50.129Z,957.73
2023-02-27T01:48:50.054Z,957.7
2023-02-27T01:49:50.073Z,957.68
2023-02-27T01:51:50.078Z,957.69
2023-02-27T01:52:50.071Z,957.7
2023-02-27T01:53:50.142Z,957.71
2023-02-27T01:54:50.224Z,957.68
2023-02-27T01:55:50.089Z,957.67
2023-02-27T01:56:50.091Z,957.7
2023-02-27T01:57:50.083Z,957.64
2023-02-27T01:58:50.089Z,957.67
2023-02-27T01:59:50.092Z,957.64
2023-02-27T02:00:50.128Z,957.63
2023-02-27T02:01:50.164Z,957.64
2023-02-27T02:02:50.116Z,957.66
2023-02-27T02:03:50.119Z,957.62
2023-02-27T02:05:50.190Z,957.59
2023-02-27T02:06:50.150Z,957.55
2023-02-27T02:07:50.117Z,957.56
2023-02-27T02:08:50.131Z,957.59
2023-02-27T02:09:50.113Z,957.57
2023-02-27T02:10:50.113Z,957.56
2023-02-27T02:11:50.158Z,957.61
2023-02-27T02:12:50.120Z,957.55
2023-02-27T02:13:50.129Z,957.58
2023-02-27T02:14:50.140Z,957.57
2023-02-27T02:15:50.225Z,957.58
2023-02-27T02:17:50.126Z,957.57
2023-02-27T02:18:50.133Z,957.59
2023-02-27T02:19:50.131Z,957.57
2023-02-27T02:20:50.148Z,957.61
2023-02-27T02:21:50.251Z,957.59
2023-02-27T02:22:50.151Z,957.62
2023-02-27T02:23:50.144Z,957.61
2023-02-27T02:25:50.128Z,957.65
2023-02-27T02:26:50.196Z,957.69
2023-02-27T02:27:50.160Z,957.63
2023-02-27T02:28:50.160Z,957.59
2023-02-27T02:30:50.331Z,957.56
2023-02-27T02:31:50.393Z,957.57
2023-02-27T02:32:50.278Z,957.59
2023-02-27T02:34:50.199Z,957.6
2023-02-27T02:35:50.166Z,957.64
2023-02-27T02:36:50.168Z,957.62
2023-02-27T02:37:50.189Z,957.58
2023-02-27T02:38:50.204Z,957.57
2023-02-27T02:39:50.172Z,957.59
2023-02-27T02:40:51.853Z,957.62
2023-02-27T02:41:50.206Z,957.61
2023-02-27T02:42:51.816Z,957.6
2023-02-27T02:43:50.186Z,957.54
2023-02-27T02:44:50.208Z,957.57
2023-02-27T02:45:50.246Z,957.61
2023-02-27T02:46:50.210Z,957.57
2023-02-27T02:47:50.222Z,957.51
2023-02-27T02:48:50.223Z,957.45
2023-02-27T02:49:50.220Z,957.55
2023-02-27T02:50:50.234Z,957.49
2023-02-27T02:51:50.211Z,957.52
2023-02-27T02:52:50.220Z,957.55
2023-02-27T02:53:50.307Z,957.56
2023-02-27T02:54:50.244Z,957.52
2023-02-27T02:55:50.217Z,957.55
2023-02-27T02:56:50.246Z,957.57
2023-02-27T02:57:50.221Z,957.59
2023-02-27T02:58:50.213Z,957.55
2023-02-27T03:00:50.280Z,957.53
2023-02-27T03:01:50.484Z,957.49
2023-02-27T03:02:50.228Z,957.51
2023-02-27T03:03:50.292Z,957.47
2023-02-27T03:04:50.256Z,957.5
2023-02-27T03:05:50.238Z,957.53
2023-02-27T03:07:50.289Z,957.5
2023-02-27T03:09:50.346Z,957.55
2023-02-27T03:10:50.319Z,957.51
2023-02-27T03:11:50.253Z,957.52
2023-02-27T03:12:50.263Z,957.55
2023-02-27T03:13:50.406Z,957.54
2023-02-27T03:14:50.242Z,957.55
2023-02-27T03:15:50.294Z,957.63
2023-02-27T03:16:50.395Z,957.56
2023-02-27T03:17:50.266Z,957.63
2023-02-27T03:19:50.274Z,957.62
2023-02-27T03:20:50.272Z,957.65
2023-02-27T03:21:50.299Z,957.66
2023-02-27T03:22:50.286Z,957.65
2023-02-27T03:23:50.291Z,957.62
2023-02-27T03:24:50.306Z,957.64
2023-02-27T03:25:50.389Z,957.69
2023-02-27T03:26:50.280Z,957.68
2023-02-27T03:27:50.307Z,957.61
2023-02-27T03:28:50.275Z,957.66
2023-02-27T03:29:50.291Z,957.7
2023-02-27T03:30:50.492Z,957.68
2023-02-27T03:32:50.381Z,957.67
2023-02-27T03:33:50.319Z,957.68
2023-02-27T03:34:50.306Z,957.76
2023-02-27T03:35:50.292Z,957.67
2023-02-27T03:36:50.320Z,957.76
2023-02-27T03:37:50.316Z,957.83
2023-02-27T03:38:50.334Z,957.8
2023-02-27T03:39:50.430Z,957.84
2023-02-27T03:40:50.326Z,957.79
2023-02-27T03:41:50.336Z,957.77
2023-02-27T03:42:50.312Z,957.76
2023-02-27T03:43:50.311Z,957.81
2023-02-27T03:44:52.340Z,957.83
2023-02-27T03:46:50.362Z,957.82
2023-02-27T03:48:50.340Z,957.84
2023-02-27T03:49:50.336Z,957.86
2023-02-27T03:50:50.501Z,957.87
2023-02-27T03:51:50.379Z,957.88
2023-02-27T03:52:50.341Z,957.93
2023-02-27T03:53:51.763Z,957.9
2023-02-27T03:54:50.372Z,957.92
2023-02-27T03:55:50.436Z,957.93
2023-02-27T03:56:50.357Z,957.95
2023-02-27T03:57:50.352Z,957.92
2023-02-27T03:58:50.358Z,957.99
2023-02-27T03:59:50.356Z,958
2023-02-27T04:00:50.472Z,957.98
2023-02-27T04:01:50.379Z,958.03
2023-02-27T04:02:50.414Z,958.01
2023-02-27T04:03:50.349Z,958.03
2023-02-27T04:05:50.446Z,958.06
2023-02-27T04:06:50.370Z,958.07
2023-02-27T04:07:50.393Z,958.08
2023-02-27T04:09:50.392Z,958.14
2023-02-27T04:10:50.367Z,958.11
2023-02-27T04:11:50.393Z,958.09
2023-02-27T04:13:50.399Z,958.14
2023-02-27T04:15:50.496Z,958.19
2023-02-27T04:16:50.409Z,958.14
2023-02-27T04:17:50.396Z,958.16
2023-02-27T04:18:50.415Z,958.18
2023-02-27T04:19:50.392Z,958.17
2023-02-27T04:20:50.410Z,958.19
2023-02-27T04:21:50.407Z,958.21
2023-02-27T04:22:50.408Z,958.22
2023-02-27T04:23:50.413Z,958.25
2023-02-27T04:24:50.408Z,958.21
2023-02-27T04:25:50.595Z,958.25
2023-02-27T04:26:50.511Z,958.28
2023-02-27T04:28:50.519Z,958.25
2023-02-27T04:29:50.446Z,958.31
2023-02-27T04:30:50.462Z,958.38
2023-02-27T04:32:50.573Z,958.31
2023-02-27T04:33:50.525Z,958.35
2023-02-27T04:34:50.437Z,958.41
2023-02-27T04:35:50.455Z,958.35
2023-02-27T04:36:50.463Z,958.33
2023-02-27T04:38:50.544Z,958.37
2023-02-27T04:39:50.462Z,958.39
2023-02-27T04:41:50.519Z,958.38
2023-02-27T04:42:50.630Z,958.39
2023-02-27T04:43:50.477Z,958.37
2023-02-27T04:44:50.472Z,958.39
2023-02-27T04:45:50.512Z,958.41
2023-02-27T04:46:50.479Z,958.46
2023-02-27T04:47:50.550Z,958.45
2023-02-27T04:49:50.601Z,958.46
2023-02-27T04:51:50.541Z,958.43
2023-02-27T04:52:50.516Z,958.42
2023-02-27T04:53:50.483Z,958.44
2023-02-27T04:54:50.529Z,958.47
2023-02-27T04:56:50.571Z,958.49
2023-02-27T04:57:50.521Z,958.53
2023-02-27T04:58:50.498Z,958.56
2023-02-27T04:59:50.512Z,958.59
2023-02-27T05:00:50.512Z,958.51
2023-02-27T05:02:50.581Z,958.56
2023-02-27T05:03:50.512Z,958.54
2023-02-27T05:04:50.511Z,958.55
2023-02-27T05:05:50.525Z,958.6
2023-02-27T05:06:50.539Z,958.56
2023-02-27T05:09:50.576Z,958.6
2023-02-27T05:10:50.549Z,958.57
2023-02-27T05:11:50.532Z,958.58
2023-02-27T05:12:50.542Z,958.61
2023-02-27T05:13:50.610Z,958.56
2023-02-27T05:14:50.550Z,958.62
2023-02-27T05:16:50.607Z,958.58
2023-02-27T05:17:50.575Z,958.57
2023-02-27T05:18:50.552Z,958.56
2023-02-27T05:19:50.551Z,958.62
2023-02-27T05:20:50.600Z,958.57
2023-02-27T05:22:50.662Z,958.58
2023-02-27T05:23:50.722Z,958.57
2023-02-27T05:26:50.634Z,958.54
2023-02-27T05:27:50.599Z,958.58
2023-02-27T05:28:50.591Z,958.53
2023-02-27T05:29:50.582Z,958.6
2023-02-27T05:30:50.563Z,958.55
2023-02-27T05:31:50.715Z,958.62
2023-02-27T05:32:50.591Z,958.58
2023-02-27T05:33:50.586Z,958.62
2023-02-27T05:34:50.650Z,958.61
2023-02-27T05:35:50.631Z,958.62
2023-02-27T05:36:50.589Z,958.59
2023-02-27T05:37:50.617Z,958.6
2023-02-27T05:38:50.590Z,958.62
2023-02-27T05:39:50.592Z,958.64
2023-02-27T05:40:50.603Z,958.56
2023-02-27T05:41:50.626Z,958.62
2023-02-27T05:42:50.605Z,958.58
2023-02-27T05:43:50.604Z,958.61
2023-02-27T05:44:50.724Z,958.6
2023-02-27T05:45:50.606Z,958.64
2023-02-27T05:47:50.656Z,958.65
2023-02-27T05:48:50.613Z,958.63
2023-02-27T05:49:51.667Z,958.66
2023-02-27T05:50:50.625Z,958.68
2023-02-27T05:51:50.619Z,958.7
2023-02-27T05:52:50.626Z,958.63
2023-02-27T05:54:50.671Z,958.61
2023-02-27T05:55:51.707Z,958.64
2023-02-27T05:56:50.649Z,958.66
2023-02-27T05:57:50.634Z,958.65
2023-02-27T05:58:50.644Z,958.67
2023-02-27T06:00:50.646Z,958.63
2023-02-27T06:02:50.708Z,958.62
2023-02-27T06:03:50.692Z,958.69
2023-02-27T06:04:50.693Z,958.65
2023-02-27T06:05:50.645Z,958.68
2023-02-27T06:06:50.679Z,958.74
2023-02-27T06:07:50.662Z,958.68
2023-02-27T06:08:50.669Z,958.73
2023-02-27T06:09:51.794Z,958.77
2023-02-27T06:10:50.663Z,958.75
2023-02-27T06:11:50.676Z,958.72
2023-02-27T06:12:50.663Z,958.77
2023-02-27T06:13:50.701Z,958.76
2023-02-27T06:14:50.668Z,958.73
2023-02-27T06:15:50.678Z,958.75
2023-02-27T06:16:50.736Z,958.73
2023-02-27T06:17:50.705Z,958.76
2023-02-27T06:19:50.760Z,958.75
2023-02-27T06:20:50.815Z,958.76
2023-02-27T06:21:50.712Z,958.82
2023-02-27T06:22:50.704Z,958.86
2023-02-27T06:23:50.703Z,958.84
2023-02-27T06:24:50.711Z,958.82
2023-02-27T06:25:50.755Z,958.84
2023-02-27T06:26:50.719Z,958.85
2023-02-27T06:27:50.727Z,958.86
2023-02-27T06:28:50.735Z,958.9
2023-02-27T06:29:50.713Z,958.95
2023-02-27T06:30:50.868Z,958.99
2023-02-27T06:32:50.777Z,958.98
2023-02-27T06:33:50.761Z,958.99
2023-02-27T06:34:50.829Z,959.05
2023-02-27T06:35:50.771Z,959.06
2023-02-27T06:36:50.718Z,959.04
2023-02-27T06:37:50.739Z,959.02
2023-02-27T06:38:50.732Z,959.07
2023-02-27T06:39:50.732Z,959.11
2023-02-27T06:40:50.740Z,959.07
2023-02-27T06:41:50.724Z,959.09
2023-02-27T06:42:50.749Z,959.13
2023-02-27T06:44:50.836Z,959.08
2023-02-27T06:45:50.812Z,959.09
2023-02-27T06:46:50.759Z,959.11
2023-02-27T06:47:51.895Z,959.1
2023-02-27T06:48:50.884Z,959.09
2023-02-27T06:49:50.764Z,959.14
2023-02-27T06:50:50.746Z,959.16
2023-02-27T06:51:50.766Z,959.15
2023-02-27T06:52:50.767Z,959.17
2023-02-27T06:53:50.760Z,959.19
2023-02-27T06:54:50.755Z,959.21
2023-02-27T06:55:50.768Z,959.14
2023-02-27T06:56:50.756Z,959.15
2023-02-27T06:57:50.795Z,959.21
2023-02-27T06:59:50.845Z,959.24
2023-02-27T07:00:50.774Z,959.23
2023-02-27T07:01:50.848Z,959.22
2023-02-27T07:02:50.790Z,959.27
2023-02-27T07:03:50.896Z,959.24
2023-02-27T07:04:50.815Z,959.23
2023-02-27T07:05:50.779Z,959.24
2023-02-27T07:07:51.060Z,959.25
2023-02-27T07:08:53.957Z,959.27
2023-02-27T07:09:50.952Z,959.21
2023-02-27T07:10:50.804Z,959.29
2023-02-27T07:11:50.810Z,959.27
2023-02-27T07:12:50.826Z,959.23
2023-02-27T07:13:50.810Z,959.28
2023-02-27T07:14:50.874Z,959.31
2023-02-27T07:16:50.945Z,959.3
2023-02-27T07:17:50.840Z,959.31
2023-02-27T07:18:50.835Z,959.32
2023-02-27T07:19:50.821Z,959.33
2023-02-27T07:20:50.824Z,959.32
2023-02-27T07:21:50.831Z,959.34
2023-02-27T07:22:52.036Z,959.38
2023-02-27T07:23:50.829Z,959.37
2023-02-27T07:24:50.827Z,959.4
2023-02-27T07:25:50.840Z,959.35
2023-02-27T07:27:50.950Z,959.39
2023-02-27T07:28:50.995Z,959.34
2023-02-27T07:29:50.859Z,959.35
2023-02-27T07:30:50.888Z,959.27
2023-02-27T07:31:50.905Z,959.3
2023-02-27T07:32:50.982Z,959.4
2023-02-27T07:33:50.918Z,959.3
2023-02-27T07:34:50.864Z,959.38
2023-02-27T07:35:51.055Z,959.33
2023-02-27T07:37:50.964Z,959.46
2023-02-27T07:39:50.950Z,959.48
2023-02-27T07:40:51.019Z,959.5
2023-02-27T07:41:51.112Z,959.47
2023-02-27T07:42:52.766Z,959.49
2023-02-27T07:43:51.015Z,959.54
2023-02-27T07:44:50.831Z,959.52
2023-02-27T07:45:50.882Z,959.55
2023-02-27T07:47:50.899Z,959.57
2023-02-27T07:48:50.884Z,959.59
2023-02-27T07:50:50.979Z,959.57
2023-02-27T07:51:50.922Z,959.56
2023-02-27T07:55:50.990Z,959.59
2023-02-27T07:57:50.950Z,959.57
2023-02-27T07:58:50.939Z,959.6
2023-02-27T07:59:50.908Z,959.58
2023-02-27T08:01:50.911Z,959.62
2023-02-27T08:02:50.953Z,959.61
2023-02-27T08:03:50.950Z,959.64
2023-02-27T08:04:50.973Z,959.63
2023-02-27T08:05:50.935Z,959.64
2023-02-27T08:07:50.996Z,959.7
2023-02-27T08:08:50.959Z,959.65
2023-02-27T08:09:50.975Z,959.73
2023-02-27T08:10:51.109Z,959.71
2023-02-27T08:11:51.025Z,959.76
2023-02-27T08:12:50.978Z,959.77
2023-02-27T08:14:03.346Z,959.78
2023-02-27T08:14:50.958Z,959.77
2023-02-27T08:15:50.986Z,959.75
2023-02-27T08:16:50.950Z,959.77
2023-02-27T08:17:50.959Z,959.76
2023-02-27T08:18:50.962Z,959.73
2023-02-27T08:19:51.004Z,959.72
2023-02-27T08:20:50.976Z,959.79
2023-02-27T08:21:50.994Z,959.81
2023-02-27T08:22:51.069Z,959.83
2023-02-27T08:24:50.960Z,959.85
2023-02-27T08:25:51.072Z,959.84
2023-02-27T08:26:51.124Z,959.9
2023-02-27T08:27:50.994Z,959.87
2023-02-27T08:29:51.103Z,959.86
2023-02-27T08:30:50.987Z,959.89
2023-02-27T08:32:51.078Z,959.99
2023-02-27T08:33:58.002Z,959.95
2023-02-27T08:35:51.138Z,959.98
2023-02-27T08:36:51.015Z,959.97
2023-02-27T08:37:50.992Z,959.95
2023-02-27T08:38:51.008Z,960.01
2023-02-27T08:39:51.004Z,959.97
2023-02-27T08:41:51.081Z,959.99
2023-02-27T08:42:51.053Z,959.97
2023-02-27T08:43:51.014Z,960
2023-02-27T08:45:51.140Z,959.98
2023-02-27T08:46:51.021Z,960.03
2023-02-27T08:47:51.071Z,960.02
2023-02-27T08:49:51.117Z,960.13
2023-02-27T08:50:57.746Z,960.09
2023-02-27T08:52:51.029Z,960.06
2023-02-27T08:54:51.141Z,960.07
2023-02-27T08:55:51.038Z,960.15
2023-02-27T08:57:51.102Z,960.14
2023-02-27T08:59:51.080Z,960.17
2023-02-27T09:00:51.075Z,960.21
2023-02-27T09:02:51.172Z,960.28
2023-02-27T09:03:51.107Z,960.23
2023-02-27T09:04:51.078Z,960.24
2023-02-27T09:05:51.102Z,960.23
2023-02-27T09:06:51.057Z,960.24
2023-02-27T09:08:51.162Z,960.22
2023-02-27T09:09:51.198Z,960.23
2023-02-27T09:10:51.078Z,960.3
2023-02-27T09:11:51.081Z,960.26
2023-02-27T09:12:51.175Z,960.28
2023-02-27T09:13:51.074Z,960.25
2023-02-27T09:14:51.082Z,960.32
2023-02-27T09:15:51.092Z,960.33
2023-02-27T09:16:51.128Z,960.25
2023-02-27T09:17:51.176Z,960.29
2023-02-27T09:18:51.114Z,960.28
2023-02-27T09:19:51.149Z,960.32
2023-02-27T09:20:51.091Z,960.3
2023-02-27T09:21:51.102Z,960.32
2023-02-27T09:22:51.131Z,960.34
2023-02-27T09:23:51.142Z,960.37
2023-02-27T09:25:51.147Z,960.38
2023-02-27T09:26:51.438Z,960.41
2023-02-27T09:28:51.125Z,960.43
2023-02-27T09:29:51.326Z,960.47
2023-02-27T09:30:51.136Z,960.44
2023-02-27T09:31:51.262Z,960.49
2023-02-27T09:32:51.267Z,960.48
2023-02-27T09:33:51.166Z,960.52
2023-02-27T09:34:51.134Z,960.53
2023-02-27T09:35:51.194Z,960.56
2023-02-27T09:37:51.139Z,960.55
2023-02-27T09:38:51.141Z,960.59
2023-02-27T09:39:51.189Z,960.57
2023-02-27T09:40:51.164Z,960.55
2023-02-27T09:41:51.156Z,960.49
2023-02-27T09:42:51.330Z,960.52
2023-02-27T09:43:51.279Z,960.55
2023-02-27T09:44:51.163Z,960.56
2023-02-27T09:45:51.244Z,960.59
2023-02-27T09:46:51.340Z,960.57
2023-02-27T09:48:51.271Z,960.61
2023-02-27T09:50:51.252Z,960.68
2023-02-27T09:51:53.112Z,960.72
2023-02-27T09:52:51.334Z,960.7
2023-02-27T09:53:51.179Z,960.68
2023-02-27T09:54:51.187Z,960.7
2023-02-27T09:55:51.176Z,960.76
2023-02-27T09:56:51.255Z,960.81
2023-02-27T09:57:51.193Z,960.83
2023-02-27T09:58:51.185Z,960.8
2023-02-27T09:59:52.758Z,960.78
2023-02-27T10:00:51.207Z,960.84
2023-02-27T10:01:51.195Z,960.82
2023-02-27T10:02:51.233Z,960.8
2023-02-27T10:03:51.221Z,960.87
2023-02-27T10:04:51.203Z,960.86
2023-02-27T10:05:51.200Z,960.94
2023-02-27T10:06:51.211Z,960.85
2023-02-27T10:07:51.245Z,960.9
2023-02-27T10:09:51.289Z,960.91
2023-02-27T10:10:51.218Z,960.97
2023-02-27T10:11:51.248Z,960.94
2023-02-27T10:12:51.334Z,960.9
2023-02-27T10:13:51.221Z,960.97
2023-02-27T10:14:51.365Z,960.95
2023-02-27T10:15:51.229Z,961
2023-02-27T10:16:51.323Z,961.01
2023-02-27T10:17:51.243Z,961.06
2023-02-27T10:20:51.282Z,961.05
2023-02-27T10:21:51.275Z,961.07
2023-02-27T10:22:51.248Z,961.09
2023-02-27T10:23:51.256Z,961.07
2023-02-27T10:24:51.242Z,961.1
2023-02-27T10:25:51.259Z,961.07
2023-02-27T10:26:51.396Z,961.09
2023-02-27T10:27:51.287Z,961.16
2023-02-27T10:28:51.290Z,961.2
2023-02-27T10:29:51.311Z,961.21
2023-02-27T10:30:51.292Z,961.2
2023-02-27T10:31:51.410Z,961.23
2023-02-27T10:32:51.274Z,961.27
2023-02-27T10:33:51.311Z,961.28
2023-02-27T10:34:51.339Z,961.31
2023-02-27T10:35:51.307Z,961.29
2023-02-27T10:36:51.397Z,961.35
2023-02-27T10:39:51.383Z,961.34
2023-02-27T10:40:51.294Z,961.3
2023-02-27T10:41:51.278Z,961.41
2023-02-27T10:42:51.304Z,961.36
2023-02-27T10:44:51.431Z,961.39
2023-02-27T10:46:52.079Z,961.36
2023-02-27T10:48:51.314Z,961.38
2023-02-27T10:49:51.312Z,961.39
2023-02-27T10:50:51.348Z,961.46
2023-02-27T10:51:51.315Z,961.43
2023-02-27T10:52:51.338Z,961.42
2023-02-27T10:53:51.321Z,961.41
2023-02-27T10:54:51.312Z,961.4
2023-02-27T10:56:51.427Z,961.41
2023-02-27T10:57:51.322Z,961.45
2023-02-27T10:58:51.332Z,961.48
2023-02-27T11:00:51.338Z,961.49
2023-02-27T11:01:51.386Z,961.5
2023-02-27T11:02:51.366Z,961.54
2023-02-27T11:04:52.605Z,961.52
2023-02-27T11:05:51.369Z,961.53
2023-02-27T11:06:51.336Z,961.46
2023-02-27T11:07:51.359Z,961.49
2023-02-27T11:08:51.350Z,961.51
2023-02-27T11:09:51.365Z,961.5
2023-02-27T11:10:51.516Z,961.51
2023-02-27T11:11:51.381Z,961.5
2023-02-27T11:13:51.365Z,961.51
2023-02-27T11:14:51.366Z,961.48
2023-02-27T11:15:51.378Z,961.52
2023-02-27T11:16:51.369Z,961.53
2023-02-27T11:17:51.367Z,961.55
2023-02-27T11:18:51.380Z,961.5
2023-02-27T11:19:51.405Z,961.47
2023-02-27T11:20:51.462Z,961.49
2023-02-27T11:21:51.393Z,961.47
2023-02-27T11:22:51.488Z,961.48
2023-02-27T11:23:51.440Z,961.49
2023-02-27T11:24:51.411Z,961.47
2023-02-27T11:25:51.490Z,961.48
2023-02-27T11:26:51.405Z,961.49
2023-02-27T11:27:51.406Z,961.52
2023-02-27T11:31:51.611Z,961.49
2023-02-27T11:32:51.470Z,961.5
2023-02-27T11:33:51.416Z,961.52
2023-02-27T11:34:51.411Z,961.5
2023-02-27T11:35:51.417Z,961.51
2023-02-27T11:36:51.590Z,961.54
2023-02-27T11:37:51.434Z,961.52
2023-02-27T11:38:51.489Z,961.53
2023-02-27T11:39:51.421Z,961.54
2023-02-27T11:40:51.536Z,961.52
2023-02-27T11:41:51.440Z,961.51
2023-02-27T11:42:51.426Z,961.54
2023-02-27T11:43:51.438Z,961.55
2023-02-27T11:44:51.602Z,961.54
2023-02-27T11:46:51.820Z,961.57
2023-02-27T11:47:51.496Z,961.51
2023-02-27T11:49:51.470Z,961.53
2023-02-27T11:50:51.463Z,961.55
2023-02-27T11:51:51.452Z,961.57
2023-02-27T11:52:51.462Z,961.58
2023-02-27T11:53:51.607Z,961.62
2023-02-27T11:54:51.466Z,961.59
2023-02-27T11:55:51.529Z,961.57
2023-02-27T11:56:51.480Z,961.61
2023-02-27T11:57:51.472Z,961.62
2023-02-27T11:58:51.472Z,961.58
2023-02-27T11:59:51.466Z,961.61
2023-02-27T12:00:51.584Z,961.6
2023-02-27T12:01:52.798Z,961.59
2023-02-27T12:02:51.507Z,961.63
2023-02-27T12:03:51.632Z,961.61
2023-02-27T12:04:51.554Z,961.66
2023-02-27T12:05:51.490Z,961.62
2023-02-27T12:06:51.484Z,961.69
2023-02-27T12:07:53.377Z,961.65
2023-02-27T12:08:51.507Z,961.67
2023-02-27T12:09:51.498Z,961.64
2023-02-27T12:10:52.884Z,961.67
2023-02-27T12:11:51.571Z,961.65
2023-02-27T12:12:51.603Z,961.7
2023-02-27T12:13:51.566Z,961.69
2023-02-27T12:14:51.536Z,961.71
2023-02-27T12:15:51.544Z,961.65
2023-02-27T12:16:51.510Z,961.67
2023-02-27T12:17:51.627Z,961.68
2023-02-27T12:18:51.512Z,961.65
2023-02-27T12:19:51.542Z,961.69
2023-02-27T12:20:51.534Z,961.66
2023-02-27T12:21:51.551Z,961.61
2023-02-27T12:22:51.532Z,961.6
2023-02-27T12:23:51.542Z,961.67
2023-02-27T12:24:51.532Z,961.69
2023-02-27T12:26:51.735Z,961.6
2023-02-27T12:27:51.553Z,961.69
2023-02-27T12:28:51.555Z,961.64
2023-02-27T12:29:51.536Z,961.67
2023-02-27T12:30:51.544Z,961.66
2023-02-27T12:31:53.176Z,961.62
2023-02-27T12:32:51.539Z,961.66
2023-02-27T12:33:51.549Z,961.72
2023-02-27T12:34:51.547Z,961.73
2023-02-27T12:35:51.557Z,961.71
2023-02-27T12:36:51.554Z,961.75
2023-02-27T12:37:51.578Z,961.65
2023-02-27T12:38:51.548Z,961.71
2023-02-27T12:39:51.563Z,961.67
2023-02-27T12:40:51.564Z,961.69
2023-02-27T12:41:51.565Z,961.73
2023-02-27T12:42:51.559Z,961.75
2023-02-27T12:45:51.707Z,961.72
2023-02-27T12:46:51.688Z,961.7
2023-02-27T12:47:51.576Z,961.74
2023-02-27T12:48:53.000Z,961.7
2023-02-27T12:49:51.612Z,961.71
2023-02-27T12:51:51.656Z,961.75
2023-02-27T12:52:51.603Z,961.78
2023-02-27T12:53:51.584Z,961.81
2023-02-27T12:54:51.586Z,961.77
2023-02-27T12:55:51.600Z,961.81
2023-02-27T12:56:51.595Z,961.8
2023-02-27T12:58:51.605Z,961.81
2023-02-27T12:59:51.622Z,961.8
2023-02-27T13:00:51.827Z,961.81
2023-02-27T13:01:51.627Z,961.83
2023-02-27T13:02:51.621Z,961.86
2023-02-27T13:03:51.640Z,961.83
2023-02-27T13:04:51.613Z,961.82
2023-02-27T13:05:51.705Z,961.88
2023-02-27T13:06:51.639Z,961.86
2023-02-27T13:07:51.616Z,961.85
2023-02-27T13:08:51.695Z,961.88
2023-02-27T13:10:51.703Z,961.84
2023-02-27T13:11:51.645Z,961.89
2023-02-27T13:12:51.670Z,961.87
2023-02-27T13:13:51.637Z,961.91
2023-02-27T13:14:51.659Z,961.9
2023-02-27T13:15:51.651Z,961.87
2023-02-27T13:16:51.684Z,961.88
2023-02-27T13:17:51.666Z,961.82
2023-02-27T13:19:51.672Z,961.85
2023-02-27T13:20:51.677Z,961.84
2023-02-27T13:21:51.656Z,961.85
2023-02-27T13:22:51.701Z,961.87
2023-02-27T13:23:51.675Z,961.83
2023-02-27T13:24:51.686Z,961.86
2023-02-27T13:25:51.691Z,961.9
2023-02-27T13:26:51.687Z,961.93
2023-02-27T13:28:51.680Z,961.92
2023-02-27T13:29:51.683Z,961.89
2023-02-27T13:30:51.674Z,961.9
2023-02-27T13:31:51.747Z,961.81
2023-02-27T13:32:51.822Z,961.8
2023-02-27T13:33:51.801Z,961.84
2023-02-27T13:36:51.738Z,961.83
2023-02-27T13:37:51.734Z,961.8
2023-02-27T13:38:52.703Z,961.83
2023-02-27T13:41:51.766Z,961.82
2023-02-27T13:42:51.741Z,961.84
2023-02-27T13:43:53.063Z,961.87
2023-02-27T13:44:51.819Z,961.88
2023-02-27T13:45:51.759Z,961.85
2023-02-27T13:46:51.768Z,961.87
2023-02-27T13:47:51.711Z,961.86
2023-02-27T13:49:51.729Z,961.91
2023-02-27T13:50:51.723Z,961.88
2023-02-27T13:51:51.729Z,961.91
2023-02-27T13:52:51.734Z,961.87
2023-02-27T13:53:51.758Z,961.84
2023-02-27T13:54:55.064Z,961.9
2023-02-27T13:55:51.852Z,961.87
2023-02-27T13:56:51.763Z,961.93
2023-02-27T13:57:51.739Z,961.95
2023-02-27T13:58:51.738Z,961.93
2023-02-27T13:59:51.744Z,961.92
2023-02-27T14:00:51.829Z,961.95
2023-02-27T14:01:51.758Z,961.97
2023-02-27T14:02:59.152Z,961.96
2023-02-27T14:05:52.240Z,961.94
2023-02-27T14:06:51.808Z,961.86
2023-02-27T14:08:52.255Z,961.9
2023-02-27T14:09:51.999Z,961.94
2023-02-27T14:10:51.773Z,961.91
2023-02-27T14:11:51.782Z,961.92
2023-02-27T14:12:51.780Z,961.95
2023-02-27T14:13:51.785Z,961.94
2023-02-27T14:14:51.782Z,961.96
2023-02-27T14:15:51.845Z,961.97
2023-02-27T14:16:51.789Z,961.94
2023-02-27T14:17:54.586Z,961.96
2023-02-27T14:18:51.994Z,961.95
2023-02-27T14:19:51.805Z,961.99
2023-02-27T14:21:51.915Z,962
2023-02-27T14:22:51.823Z,962.01
2023-02-27T14:23:51.802Z,962.06
2023-02-27T14:25:01.895Z,962.01
2023-02-27T14:25:51.805Z,962.07
2023-02-27T14:27:51.819Z,962.03
2023-02-27T14:28:51.845Z,962.07
2023-02-27T14:29:51.816Z,962.05
2023-02-27T14:30:51.846Z,962.02
2023-02-27T14:31:51.844Z,962.05